Time;durP1;ratioP1;P1;durP2;ratioP2;P2;SDS_P1;SDS_P2;PMS_P1;PMS_P2;Temp;Humidity;BMP_temperature;BMP_pressure;BME280_temperature;BME280_humidity;BME280_pressure;Samples;Min_cycle;Max_cycle;Signal;HPM_P1;HPM_P2
2022/07/07 00:02:18;;;;;;;3.62;2.62;;;;;;;19.05;81.35;100107.38;1769659;80;21098;-67
2022/07/07 00:04:50;;;;;;;5.08;3.00;;;;;;;18.98;81.72;100113.97;1749342;80;21149;-68
2022/07/07 00:07:20;;;;;;;5.60;2.60;;;;;;;18.95;82.44;100113.66;1752204;80;21118;-67
2022/07/07 00:09:51;;;;;;;4.05;2.80;;;;;;;18.95;82.80;100103.94;1757907;80;21137;-68
2022/07/07 00:12:26;;;;;;;6.58;2.85;;;;;;;18.95;82.80;100110.33;1752079;80;21433;-67
2022/07/07 00:14:55;;;;;;;2.90;2.35;;;;;;;18.98;82.33;100110.36;1767049;80;21106;-69
2022/07/07 00:17:26;;;;;;;5.42;2.47;;;;;;;18.99;81.39;100107.32;1773767;80;21166;-68
2022/07/07 00:19:55;;;;;;;2.55;2.35;;;;;;;18.97;81.07;100102.58;1758926;80;21098;-69
2022/07/07 00:22:25;;;;;;;4.22;2.15;;;;;;;18.98;80.88;100105.64;1765898;80;21110;-68
2022/07/07 00:24:55;;;;;;;2.85;1.95;;;;;;;19.00;79.86;100098.44;1758026;80;21137;-68
2022/07/07 00:27:25;;;;;;;2.67;1.80;;;;;;;18.94;79.45;100105.03;1762150;80;21112;-68
2022/07/07 00:29:55;;;;;;;2.08;1.60;;;;;;;18.88;78.59;100101.91;1746537;80;21582;-69
2022/07/07 00:32:25;;;;;;;2.52;1.72;;;;;;;18.78;78.83;100106.76;1707406;84;21600;-67
2022/07/07 00:34:55;;;;;;;3.62;1.90;;;;;;;18.76;78.63;100103.41;1752085;81;21147;-67
2022/07/07 00:37:25;;;;;;;2.47;1.98;;;;;;;18.75;78.21;100110.60;1747384;81;21108;-68
2022/07/07 00:42:38;;;;;;;1.82;1.60;;;;;;;18.64;78.34;100099.38;1705055;82;21142;-68
2022/07/07 00:45:09;;;;;;;2.20;1.70;;;;;;;18.59;77.88;100096.50;1705751;82;21573;-67
2022/07/07 00:47:40;;;;;;;2.75;1.90;;;;;;;18.50;77.35;100102.75;1708172;82;21521;-68
2022/07/07 00:50:11;;;;;;;2.35;1.75;;;;;;;18.45;77.97;100092.43;1714381;82;21207;-68
2022/07/07 00:52:43;;;;;;;3.17;1.57;;;;;;;18.47;78.36;100093.02;1721041;82;21166;-68
2022/07/07 00:55:12;;;;;;;3.08;1.10;;;;;;;18.49;77.89;100093.59;1705507;83;21602;-69
2022/07/07 00:57:42;;;;;;;3.70;1.30;;;;;;;18.50;76.84;100097.20;1709762;82;21141;-69
2022/07/07 01:00:14;;;;;;;2.12;1.15;;;;;;;18.45;75.29;100095.75;1722750;82;21153;-67
2022/07/07 01:02:46;;;;;;;1.27;1.00;;;;;;;18.38;75.30;100089.00;1705806;82;21142;-69
2022/07/07 01:05:16;;;;;;;2.95;1.00;;;;;;;18.35;74.69;100079.81;1720339;82;21146;-67
2022/07/07 01:07:47;;;;;;;4.78;1.00;;;;;;;18.30;74.56;100076.97;1724405;81;21194;-68
2022/07/07 01:10:16;;;;;;;2.55;0.90;;;;;;;18.26;74.62;100085.51;1715847;81;21126;-68
2022/07/07 01:12:47;;;;;;;2.17;0.70;;;;;;;18.25;74.51;100091.60;1704715;82;21173;-68
2022/07/07 01:15:18;;;;;;;1.15;0.90;;;;;;;18.24;74.30;100094.63;1720288;81;21202;-70
2022/07/07 01:17:48;;;;;;;0.80;0.78;;;;;;;18.24;74.21;100098.24;1733073;81;21145;-69
2022/07/07 01:20:17;;;;;;;0.70;0.70;;;;;;;18.20;73.21;100098.98;1717350;82;21130;-69
2022/07/07 01:22:50;;;;;;;1.87;1.02;;;;;;;18.15;73.31;100101.67;1721547;81;21126;-68
2022/07/07 01:25:20;;;;;;;1.27;0.90;;;;;;;18.13;73.39;100102.48;1671038;86;21140;-69
2022/07/07 01:27:51;;;;;;;1.57;0.80;;;;;;;18.09;73.36;100110.47;1740144;82;21122;-69
2022/07/07 01:30:21;;;;;;;1.07;0.90;;;;;;;18.07;73.34;100122.36;1733092;81;21602;-69
2022/07/07 01:32:52;;;;;;;1.85;0.70;;;;;;;18.02;73.28;100127.28;1720944;82;21161;-68
2022/07/07 01:35:22;;;;;;;0.70;0.70;;;;;;;17.96;73.56;100134.38;1731794;82;21522;-68
2022/07/07 01:37:52;;;;;;;0.90;0.80;;;;;;;17.95;73.63;100138.25;1743638;82;21208;-68
2022/07/07 01:40:22;;;;;;;1.12;0.70;;;;;;;17.94;73.91;100137.41;1719754;82;21139;-69
2022/07/07 01:42:51;;;;;;;2.17;1.00;;;;;;;17.92;74.04;100139.59;1738090;81;21081;-69
2022/07/07 01:45:20;;;;;;;2.30;0.80;;;;;;;17.89;73.80;100133.16;1717713;82;21709;-67
2022/07/07 01:47:51;;;;;;;2.08;0.80;;;;;;;17.85;73.42;100137.53;1720480;82;21109;-68
2022/07/07 01:50:20;;;;;;;1.90;0.70;;;;;;;17.74;73.59;100133.75;1713770;82;21149;-68
2022/07/07 01:52:50;;;;;;;1.45;0.55;;;;;;;17.65;74.01;100142.70;1726289;82;21134;-67
2022/07/07 01:55:19;;;;;;;1.77;0.80;;;;;;;17.60;74.23;100139.84;1718802;82;21593;-67
2022/07/07 01:57:51;;;;;;;2.27;0.50;;;;;;;17.59;74.51;100144.54;1720465;82;21149;-69
2022/07/07 02:00:20;;;;;;;1.47;0.90;;;;;;;17.66;74.79;100148.53;1705718;82;21115;-66
2022/07/07 02:02:50;;;;;;;2.20;0.75;;;;;;;17.71;74.73;100152.27;1722412;82;21100;-69
2022/07/07 02:05:21;;;;;;;2.15;0.70;;;;;;;17.70;74.43;100160.29;1711721;82;21122;-69
2022/07/07 02:07:51;;;;;;;1.35;0.60;;;;;;;17.67;74.44;100161.33;1703876;82;21122;-68
2022/07/07 02:12:58;;;;;;;1.27;0.60;;;;;;;17.70;74.26;100163.60;1689400;83;21142;-69
2022/07/07 02:15:49;;;;;;;0.90;0.60;;;;;;;17.73;74.24;100153.41;1719570;82;21094;-68
2022/07/07 02:18:21;;;;;;;1.25;0.60;;;;;;;17.76;74.11;100140.43;1670159;84;21590;-68
2022/07/07 02:20:51;;;;;;;0.62;0.60;;;;;;;17.77;73.77;100150.42;1661392;86;21590;-69
2022/07/07 02:23:22;;;;;;;1.57;0.70;;;;;;;17.72;73.60;100147.02;1631651;88;21122;-69
2022/07/07 02:25:52;;;;;;;0.57;0.57;;;;;;;17.68;73.74;100148.61;1634477;87;21170;-68
2022/07/07 02:28:23;;;;;;;0.80;0.78;;;;;;;17.71;73.76;100150.05;1634575;87;21207;-68
2022/07/07 02:30:53;;;;;;;1.10;0.57;;;;;;;17.67;73.50;100164.11;1639037;87;21308;-68
2022/07/07 02:33:23;;;;;;;1.22;0.80;;;;;;;17.63;73.41;100158.73;1634794;87;21122;-68
2022/07/07 02:35:54;;;;;;;0.98;0.80;;;;;;;17.59;73.70;100163.09;1633680;87;21126;-67
2022/07/07 02:38:23;;;;;;;6.65;0.82;;;;;;;17.58;73.68;100165.57;1636147;87;21131;-68
2022/07/07 02:40:53;;;;;;;1.17;0.60;;;;;;;17.59;73.69;100158.39;1633125;87;21130;-67
2022/07/07 02:43:23;;;;;;;1.65;0.70;;;;;;;17.61;73.70;100167.84;1634859;87;21103;-68
2022/07/07 02:45:53;;;;;;;3.60;0.90;;;;;;;17.61;73.81;100171.45;1634108;87;21189;-68
2022/07/07 02:48:25;;;;;;;0.65;0.60;;;;;;;17.63;73.84;100180.91;1635933;87;21102;-69
2022/07/07 02:50:54;;;;;;;1.25;0.80;;;;;;;17.63;73.72;100178.13;1636680;87;21156;-69
2022/07/07 02:53:25;;;;;;;0.90;0.70;;;;;;;17.63;73.72;100189.22;1631462;88;21590;-68
2022/07/07 02:55:55;;;;;;;1.20;0.70;;;;;;;17.65;73.76;100181.49;1636490;87;21554;-70
2022/07/07 02:58:26;;;;;;;1.67;0.70;;;;;;;17.63;73.67;100187.28;1631314;87;21204;-69
2022/07/07 03:00:57;;;;;;;2.95;0.82;;;;;;;17.61;73.83;100176.99;1631712;88;21172;-68
2022/07/07 03:03:27;;;;;;;2.20;1.10;;;;;;;17.62;73.65;100182.83;1631285;87;21259;-67
2022/07/07 03:05:57;;;;;;;1.35;0.60;;;;;;;17.57;73.55;100177.74;1634983;86;21131;-69
2022/07/07 03:08:26;;;;;;;2.72;0.80;;;;;;;17.54;73.86;100188.75;1634895;87;21156;-68
2022/07/07 03:10:57;;;;;;;1.65;0.70;;;;;;;17.56;73.79;100185.22;1631331;88;21164;-68
2022/07/07 03:13:29;;;;;;;1.65;0.93;;;;;;;17.54;73.64;100187.91;1631008;87;21491;-68
2022/07/07 03:16:00;;;;;;;0.95;0.80;;;;;;;17.51;73.52;100187.86;1610656;88;21148;-69
2022/07/07 03:18:30;;;;;;;1.52;0.70;;;;;;;17.49;73.49;100191.96;1631019;87;21204;-69
2022/07/07 03:20:59;;;;;;;0.78;0.62;;;;;;;17.50;73.93;100195.88;1628475;87;21122;-69
2022/07/07 03:23:30;;;;;;;0.80;0.80;;;;;;;17.54;73.67;100192.06;1635638;87;21752;-67
2022/07/07 03:26:00;;;;;;;2.58;0.68;;;;;;;17.55;73.53;100194.58;1630841;87;21164;-68
2022/07/07 03:28:30;;;;;;;1.15;1.02;;;;;;;17.58;73.74;100196.89;1610325;88;21524;-68
2022/07/07 03:31:00;;;;;;;2.37;0.80;;;;;;;17.64;73.55;100193.13;1630460;88;21167;-69
2022/07/07 03:33:31;;;;;;;1.20;0.70;;;;;;;17.65;73.10;100189.26;1556818;92;21723;-68
2022/07/07 03:36:02;;;;;;;3.90;0.90;;;;;;;17.61;72.85;100195.00;1569515;91;21219;-69
2022/07/07 03:38:33;;;;;;;1.92;0.70;;;;;;;17.61;73.02;100190.01;1595108;87;21635;-68
2022/07/07 03:41:03;;;;;;;0.78;0.60;;;;;;;17.66;72.96;100197.03;1589525;88;21155;-67
2022/07/07 03:43:32;;;;;;;1.10;0.80;;;;;;;17.68;72.91;100193.50;1595489;88;21155;-67
2022/07/07 03:46:02;;;;;;;2.15;0.70;;;;;;;17.68;72.49;100195.72;1592997;89;21159;-69
2022/07/07 03:48:32;;;;;;;3.17;0.70;;;;;;;17.68;72.38;100193.50;1584198;89;21607;-69
2022/07/07 03:51:01;;;;;;;0.88;0.78;;;;;;;17.69;72.22;100193.25;1611125;85;21166;-68
2022/07/07 03:53:32;;;;;;;1.30;0.60;;;;;;;17.68;72.27;100212.89;1631122;87;21174;-68
2022/07/07 03:56:02;;;;;;;2.12;0.68;;;;;;;17.67;72.42;100213.98;1625890;87;21570;-68
2022/07/07 03:58:33;;;;;;;1.95;0.75;;;;;;;17.69;72.59;100216.80;1611553;88;21174;-68
2022/07/07 04:01:02;;;;;;;1.55;0.72;;;;;;;17.69;72.55;100220.95;1620844;88;21166;-68
2022/07/07 04:03:32;;;;;;;1.70;0.70;;;;;;;17.70;72.33;100205.17;1634876;87;21131;-69
2022/07/07 04:06:04;;;;;;;1.27;0.88;;;;;;;17.71;71.99;100205.47;1634904;87;21154;-68
2022/07/07 04:08:34;;;;;;;2.85;0.90;;;;;;;17.67;72.14;100209.28;1634058;87;21118;-68
2022/07/07 04:11:04;;;;;;;1.35;0.70;;;;;;;17.67;72.44;100212.59;1654259;86;21180;-68
2022/07/07 04:13:35;;;;;;;1.62;0.85;;;;;;;17.71;72.48;100226.25;1638383;87;21606;-69
2022/07/07 04:16:05;;;;;;;3.47;0.72;;;;;;;17.71;72.24;100233.17;1632500;87;21233;-69
2022/07/07 04:18:35;;;;;;;3.20;1.05;;;;;;;17.65;72.26;100234.98;1627769;87;21175;-70
2022/07/07 04:21:05;;;;;;;1.07;0.68;;;;;;;17.64;72.47;100224.98;1628265;88;21169;-67
2022/07/07 04:23:36;;;;;;;3.30;0.80;;;;;;;17.67;72.53;100237.53;1627743;88;21205;-69
2022/07/07 04:26:07;;;;;;;2.35;0.90;;;;;;;17.69;72.61;100235.36;1627182;88;21282;-70
2022/07/07 04:28:37;;;;;;;2.90;0.80;;;;;;;17.71;72.53;100229.86;1629009;88;21214;-70
2022/07/07 04:31:08;;;;;;;4.08;1.95;;;;;;;17.74;72.32;100236.30;1630132;87;21220;-70
2022/07/07 04:33:39;;;;;;;0.80;0.80;;;;;;;17.76;72.40;100244.36;1629058;87;21649;-69
2022/07/07 04:36:11;;;;;;;1.32;0.80;;;;;;;17.77;71.97;100234.95;1627308;87;21209;-70
2022/07/07 04:38:41;;;;;;;6.12;1.00;;;;;;;17.79;71.66;100234.16;1628654;88;21188;-70
2022/07/07 04:41:11;;;;;;;2.30;0.93;;;;;;;17.79;71.79;100245.79;1627076;88;21190;-70
2022/07/07 04:43:41;;;;;;;2.58;0.88;;;;;;;17.79;72.04;100241.09;1628831;88;21147;-68
2022/07/07 04:46:10;;;;;;;1.55;0.72;;;;;;;17.82;71.74;100235.05;1627161;87;21622;-68
2022/07/07 04:48:39;;;;;;;3.35;0.90;;;;;;;17.84;71.57;100246.72;1627994;87;21154;-68
2022/07/07 04:51:10;;;;;;;2.72;0.80;;;;;;;17.82;71.43;100235.05;1627301;87;21167;-70
2022/07/07 04:53:40;;;;;;;4.20;1.00;;;;;;;17.79;71.43;100230.55;1627356;88;21179;-68
2022/07/07 04:56:11;;;;;;;3.45;0.88;;;;;;;17.77;71.74;100249.36;1628031;87;21111;-70
2022/07/07 04:58:42;;;;;;;1.57;0.90;;;;;;;17.77;71.72;100243.27;1628631;87;21320;-68
2022/07/07 05:01:11;;;;;;;1.72;0.98;;;;;;;17.78;71.62;100238.56;1627930;88;21563;-70
2022/07/07 05:03:40;;;;;;;2.25;0.82;;;;;;;17.83;71.72;100242.81;1627883;88;21178;-68
2022/07/07 05:06:11;;;;;;;1.02;0.80;;;;;;;17.88;71.41;100252.06;1628243;87;21123;-67
2022/07/07 05:08:40;;;;;;;1.85;1.00;;;;;;;17.87;71.44;100255.09;1629412;88;21162;-70
2022/07/07 05:11:09;;;;;;;2.98;1.57;;;;;;;17.86;70.80;100260.33;1629272;88;21547;-69
2022/07/07 05:13:40;;;;;;;3.80;1.30;;;;;;;17.83;70.78;100264.45;1627611;88;21187;-69
2022/07/07 05:16:10;;;;;;;3.87;1.40;;;;;;;17.84;70.97;100266.12;1627134;87;21200;-68
2022/07/07 05:18:42;;;;;;;2.10;1.50;;;;;;;17.81;70.76;100264.39;1630300;87;21171;-70
2022/07/07 05:21:12;;;;;;;5.08;2.20;;;;;;;17.80;70.74;100266.33;1631036;87;21119;-69
2022/07/07 05:23:42;;;;;;;6.70;2.50;;;;;;;17.81;70.89;100266.63;1634442;87;21131;-67
2022/07/07 05:26:12;;;;;;;4.53;2.12;;;;;;;17.83;70.69;100274.69;1631373;87;21126;-69
2022/07/07 05:28:43;;;;;;;2.75;2.00;;;;;;;17.86;70.42;100265.88;1631680;87;21122;-71
2022/07/07 05:31:14;;;;;;;4.62;2.00;;;;;;;17.90;70.34;100277.60;1634913;87;21625;-69
2022/07/07 05:33:44;;;;;;;4.40;2.40;;;;;;;17.89;70.52;100270.38;1631686;87;21658;-70
2022/07/07 05:36:13;;;;;;;3.62;2.30;;;;;;;17.92;70.63;100273.20;1634505;86;21593;-68
2022/07/07 05:38:45;;;;;;;3.52;2.20;;;;;;;17.96;70.57;100264.13;1633005;87;21553;-69
2022/07/07 05:41:15;;;;;;;4.35;2.22;;;;;;;18.03;70.38;100257.88;1636032;87;21178;-70
2022/07/07 05:43:45;;;;;;;3.05;1.92;;;;;;;18.11;70.37;100266.88;1637551;86;21207;-71
2022/07/07 05:46:14;;;;;;;3.10;2.00;;;;;;;18.19;69.94;100259.53;1631430;88;21314;-69
2022/07/07 05:48:44;;;;;;;3.85;2.20;;;;;;;18.22;69.46;100259.91;1634804;87;21164;-70
2022/07/07 05:51:14;;;;;;;3.77;2.00;;;;;;;18.17;69.56;100259.78;1634952;86;21184;-70
2022/07/07 05:53:43;;;;;;;4.50;2.42;;;;;;;18.23;69.53;100251.88;1625389;87;21208;-72
2022/07/07 05:56:13;;;;;;;3.05;2.10;;;;;;;18.28;69.27;100253.34;1638385;87;21126;-71
2022/07/07 05:58:43;;;;;;;3.83;1.65;;;;;;;18.37;69.12;100262.09;1630683;87;21204;-69
2022/07/07 06:01:13;;;;;;;3.67;2.20;;;;;;;18.43;68.74;100271.34;1635693;87;21150;-70
2022/07/07 06:03:43;;;;;;;3.15;2.05;;;;;;;18.43;68.48;100269.95;1641424;87;21222;-70
2022/07/07 06:06:12;;;;;;;3.12;2.00;;;;;;;18.45;68.64;100266.38;1638988;87;21212;-70
2022/07/07 06:08:44;;;;;;;5.22;2.20;;;;;;;18.47;68.54;100262.25;1622310;87;21170;-71
2022/07/07 06:11:13;;;;;;;13.20;3.08;;;;;;;18.50;68.69;100274.23;1625165;87;21634;-69
2022/07/07 06:13:44;;;;;;;4.28;2.10;;;;;;;18.58;68.40;100271.03;1625822;87;21177;-69
2022/07/07 06:16:13;;;;;;;9.65;2.00;;;;;;;18.68;68.36;100278.16;1640438;86;21190;-69
2022/07/07 06:18:45;;;;;;;8.18;1.85;;;;;;;18.76;68.21;100283.83;1613532;88;21279;-71
2022/07/07 06:21:14;;;;;;;3.75;1.72;;;;;;;18.80;67.82;100289.72;1631190;88;21212;-69
2022/07/07 06:23:45;;;;;;;1.98;1.45;;;;;;;18.83;67.65;100298.37;1630549;87;21635;-69
2022/07/07 06:26:15;;;;;;;1.32;1.22;;;;;;;18.87;67.54;100298.73;1630416;87;21256;-69
2022/07/07 06:28:46;;;;;;;5.25;1.92;;;;;;;18.87;66.95;100300.12;1555407;91;21624;-69
2022/07/07 06:31:17;;;;;;;1.50;1.20;;;;;;;18.83;66.88;100301.14;1536551;92;21173;-69
2022/07/07 06:33:46;;;;;;;4.75;1.50;;;;;;;18.84;67.21;100306.16;1555833;92;21240;-69
2022/07/07 06:36:16;;;;;;;1.60;1.27;;;;;;;18.86;67.33;100308.16;1556051;91;21173;-70
2022/07/07 06:38:46;;;;;;;4.30;1.60;;;;;;;18.87;67.21;100308.45;1555876;92;21227;-70
2022/07/07 06:41:16;;;;;;;3.95;1.30;;;;;;;18.89;66.92;100313.20;1556056;92;21654;-69
2022/07/07 06:43:46;;;;;;;2.08;1.17;;;;;;;18.84;66.86;100320.88;1556237;92;21317;-69
2022/07/07 06:46:17;;;;;;;2.45;1.40;;;;;;;18.81;67.00;100322.77;1601256;86;21135;-69
2022/07/07 06:48:49;;;;;;;4.62;1.40;;;;;;;18.82;67.09;100324.45;1640507;86;21202;-69
2022/07/07 06:51:19;;;;;;;3.30;1.22;;;;;;;18.90;66.89;100320.44;1669756;84;21543;-69
2022/07/07 06:53:50;;;;;;;4.12;1.57;;;;;;;18.88;66.89;100324.02;1631020;88;21624;-69
2022/07/07 06:56:19;;;;;;;1.60;1.37;;;;;;;18.93;66.89;100322.70;1639987;87;21161;-70
2022/07/07 06:58:49;;;;;;;4.97;1.75;;;;;;;18.98;66.65;100318.61;1631110;88;21554;-70
2022/07/07 07:01:18;;;;;;;2.75;1.57;;;;;;;19.00;66.49;100310.32;1630789;88;21130;-72
2022/07/07 07:03:48;;;;;;;4.25;1.40;;;;;;;19.04;66.59;100313.42;1631271;88;21172;-69
2022/07/07 07:06:20;;;;;;;3.83;1.25;;;;;;;19.11;66.49;100310.47;1634434;87;21166;-70
2022/07/07 07:08:49;;;;;;;3.22;1.30;;;;;;;19.18;65.94;100314.74;1635045;86;21129;-71
2022/07/07 07:11:19;;;;;;;7.70;2.00;;;;;;;19.20;65.51;100304.22;1637485;86;21134;-70
2022/07/07 07:13:49;;;;;;;3.27;1.67;;;;;;;19.25;65.33;100308.45;1634113;87;21158;-69
2022/07/07 07:16:18;;;;;;;5.87;1.55;;;;;;;19.33;65.50;100310.78;1632703;86;22131;-70
2022/07/07 07:18:49;;;;;;;3.42;1.30;;;;;;;19.43;65.26;100320.34;1607010;87;21170;-70
2022/07/07 07:21:19;;;;;;;3.92;1.40;;;;;;;19.46;64.60;100303.16;1629049;88;21179;-70
2022/07/07 07:23:48;;;;;;;6.20;1.75;;;;;;;19.52;64.68;100320.22;1629716;88;21242;-70
2022/07/07 07:26:18;;;;;;;3.17;1.52;;;;;;;19.55;64.43;100315.56;1629646;88;21214;-69
2022/07/07 07:28:49;;;;;;;2.37;1.20;;;;;;;19.56;64.35;100315.30;1629935;87;21186;-70
2022/07/07 07:31:19;;;;;;;3.72;1.50;;;;;;;19.65;64.34;100315.69;1628391;87;21130;-70
2022/07/07 07:33:50;;;;;;;3.92;1.50;;;;;;;19.74;64.35;100321.63;1629180;88;21202;-70
2022/07/07 07:36:20;;;;;;;2.67;1.50;;;;;;;19.87;63.80;100318.45;1629046;88;21123;-69
2022/07/07 07:38:50;;;;;;;3.40;1.60;;;;;;;19.95;63.26;100324.38;1602892;89;21146;-70
2022/07/07 07:41:21;;;;;;;3.85;1.52;;;;;;;20.02;62.64;100320.55;1630667;88;21126;-70
2022/07/07 07:43:50;;;;;;;4.33;1.45;;;;;;;20.09;62.59;100318.41;1631528;88;21166;-72
2022/07/07 07:46:20;;;;;;;3.70;2.08;;;;;;;20.15;62.07;100315.95;1627356;88;21165;-72
2022/07/07 07:48:50;;;;;;;5.65;1.70;;;;;;;20.23;62.06;100316.35;1630320;87;21111;-71
2022/07/07 07:51:20;;;;;;;2.50;1.27;;;;;;;20.35;61.47;100314.80;1629184;87;21419;-72
2022/07/07 07:53:51;;;;;;;4.67;1.60;;;;;;;20.43;61.32;100322.69;1625576;88;21146;-71
2022/07/07 07:56:21;;;;;;;3.25;1.35;;;;;;;20.60;60.38;100317.55;1628758;88;21166;-71
2022/07/07 07:58:51;;;;;;;1.42;1.20;;;;;;;20.75;60.05;100314.87;1628460;88;21172;-69
2022/07/07 08:01:20;;;;;;;2.45;1.45;;;;;;;20.88;59.41;100313.89;1626516;88;21180;-66
2022/07/07 08:03:50;;;;;;;2.25;1.40;;;;;;;21.14;58.59;100319.63;1628663;88;21571;-69
2022/07/07 08:06:20;;;;;;;2.92;1.90;;;;;;;21.44;58.35;100317.59;1629313;88;21131;-70
2022/07/07 08:08:50;;;;;;;2.75;1.30;;;;;;;21.71;57.44;100318.30;1628764;88;21200;-69
2022/07/07 08:11:21;;;;;;;3.00;1.27;;;;;;;21.92;57.13;100325.34;1624745;88;21186;-70
2022/07/07 08:13:52;;;;;;;4.35;1.47;;;;;;;22.10;56.07;100331.83;1630233;86;21204;-70
2022/07/07 08:16:22;;;;;;;4.22;1.90;;;;;;;22.14;55.62;100328.80;1624191;88;21198;-68
2022/07/07 08:18:54;;;;;;;2.70;1.50;;;;;;;22.15;55.62;100331.87;1635055;86;21572;-69
2022/07/07 08:21:24;;;;;;;3.50;1.37;;;;;;;22.17;55.41;100332.99;1635913;86;21642;-69
2022/07/07 08:23:55;;;;;;;4.78;1.40;;;;;;;22.19;55.21;100330.20;1631377;87;21456;-70
2022/07/07 08:26:25;;;;;;;4.17;1.47;;;;;;;22.21;55.12;100330.77;1635967;87;21094;-70
2022/07/07 08:28:56;;;;;;;3.62;1.65;;;;;;;22.21;54.93;100332.16;1621170;88;21144;-71
2022/07/07 08:31:26;;;;;;;3.02;1.52;;;;;;;22.18;54.90;100336.06;1625847;88;21152;-70
2022/07/07 08:33:57;;;;;;;2.50;1.27;;;;;;;22.19;55.26;100331.61;1634117;87;21155;-71
2022/07/07 08:36:27;;;;;;;5.00;1.60;;;;;;;22.25;55.07;100331.05;1634340;87;21296;-70
2022/07/07 08:38:57;;;;;;;3.58;1.70;;;;;;;22.25;54.65;100331.89;1631369;87;21225;-70
2022/07/07 08:41:26;;;;;;;2.67;1.60;;;;;;;22.23;54.95;100336.08;1611394;88;21620;-69
2022/07/07 08:43:57;;;;;;;5.83;1.60;;;;;;;22.30;55.24;100341.67;1631046;87;21163;-71
2022/07/07 08:46:27;;;;;;;3.40;1.27;;;;;;;22.42;54.80;100342.80;1630778;87;21313;-71
2022/07/07 08:48:57;;;;;;;9.35;1.45;;;;;;;22.46;54.63;100341.97;1635135;86;21636;-68
2022/07/07 08:51:27;;;;;;;3.52;1.62;;;;;;;22.42;54.71;100340.84;1634137;87;21094;-71
2022/07/07 08:53:56;;;;;;;1.70;1.35;;;;;;;22.44;54.35;100338.61;1631123;88;21609;-70
2022/07/07 08:56:27;;;;;;;4.37;1.45;;;;;;;22.48;54.55;100342.25;1612960;87;21151;-71
2022/07/07 08:58:57;;;;;;;5.25;1.85;;;;;;;22.54;54.42;100350.91;1635871;87;21158;-69
2022/07/07 09:01:29;;;;;;;4.08;2.05;;;;;;;22.61;54.43;100350.91;1621223;88;21205;-70
2022/07/07 09:03:59;;;;;;;4.08;1.50;;;;;;;22.72;54.31;100348.96;1634707;87;21127;-70
2022/07/07 09:06:30;;;;;;;4.62;1.50;;;;;;;22.82;53.73;100350.42;1631007;88;21284;-70
2022/07/07 09:09:01;;;;;;;3.55;1.50;;;;;;;22.86;53.29;100353.49;1631569;87;21622;-71
2022/07/07 09:11:33;;;;;;;2.50;1.50;;;;;;;22.89;53.47;100362.15;1631064;87;21273;-68
2022/07/07 09:14:16;;;;;;;2.27;1.70;;;;;;;22.91;53.48;100355.72;1632243;87;21678;-71
2022/07/07 09:16:47;;;;;;;5.92;2.08;;;;;;;22.89;53.52;100362.15;1622947;87;21213;-73
2022/07/07 09:19:20;;;;;;;2.30;1.30;;;;;;;22.92;53.76;100366.34;1631307;86;21164;-68
2022/07/07 09:21:51;;;;;;;2.47;1.40;;;;;;;22.97;52.74;100371.92;1626976;87;21632;-70
2022/07/07 09:24:23;;;;;;;1.22;1.10;;;;;;;22.99;51.78;100368.29;1631293;87;21203;-70
2022/07/07 09:26:54;;;;;;;2.10;1.42;;;;;;;22.97;52.35;100369.97;1621574;88;21157;-70
2022/07/07 09:29:27;;;;;;;1.27;1.10;;;;;;;23.01;52.62;100378.63;1630372;88;21584;-71
2022/07/07 09:32:01;;;;;;;1.80;1.70;;;;;;;23.07;52.63;100368.56;1634455;87;21153;-71
2022/07/07 09:34:37;;;;;;;1.42;1.32;;;;;;;23.20;52.43;100382.52;1634313;87;21381;-69
2022/07/07 09:39:58;;;;;;;5.30;1.60;;;;;;;23.39;51.69;100364.02;1631360;88;21127;-71
2022/07/07 09:42:32;;;;;;;2.67;1.35;;;;;;;23.47;51.28;100376.63;1629830;88;21244;-71
2022/07/07 09:45:09;;;;;;;3.92;1.50;;;;;;;23.46;51.15;100371.31;1631326;87;21225;-70
2022/07/07 09:47:38;;;;;;;4.25;1.67;;;;;;;23.44;51.09;100374.95;1630898;87;21585;-69
2022/07/07 09:50:13;;;;;;;1.67;1.57;;;;;;;23.43;51.34;100376.91;1631252;88;21128;-67
2022/07/07 09:52:47;;;;;;;1.67;1.50;;;;;;;23.38;50.89;100371.30;1625755;87;21160;-69
2022/07/07 09:55:20;;;;;;;4.35;1.50;;;;;;;23.31;51.19;100367.97;1621309;88;21209;-68
2022/07/07 09:57:50;;;;;;;2.17;1.50;;;;;;;23.28;51.60;100369.37;1631196;87;21158;-70
2022/07/07 10:00:21;;;;;;;3.95;1.60;;;;;;;23.29;51.97;100371.60;1635845;87;21416;-72
2022/07/07 10:02:51;;;;;;;3.35;1.50;;;;;;;23.33;51.62;100368.52;1633012;87;21598;-70
2022/07/07 10:05:21;;;;;;;2.27;1.60;;;;;;;23.32;52.07;100362.64;1631238;88;21166;-69
2022/07/07 10:07:53;;;;;;;3.45;1.67;;;;;;;23.34;51.90;100369.63;1634662;87;21154;-71
2022/07/07 10:10:23;;;;;;;3.77;1.70;;;;;;;23.34;51.83;100366.84;1631160;87;21299;-71
2022/07/07 10:12:53;;;;;;;3.40;1.67;;;;;;;23.31;52.47;100373.00;1636689;87;21141;-69
2022/07/07 10:15:24;;;;;;;1.57;1.20;;;;;;;23.31;51.56;100386.14;1611337;88;21144;-69
2022/07/07 10:17:54;;;;;;;3.08;1.60;;;;;;;23.30;50.76;100373.28;1630903;87;21158;-69
2022/07/07 10:20:24;;;;;;;1.57;1.30;;;;;;;23.32;51.21;100385.86;1601972;89;21135;-71
2022/07/07 10:22:53;;;;;;;3.10;1.10;;;;;;;23.37;50.23;100373.27;1643435;86;21198;-70
2022/07/07 10:25:23;;;;;;;2.40;1.00;;;;;;;23.37;49.96;100378.02;1642757;86;21190;-71
2022/07/07 10:27:53;;;;;;;2.80;1.00;;;;;;;23.34;48.88;100373.83;1594038;88;21206;-70
2022/07/07 10:30:30;;;;;;;0.88;0.88;;;;;;;23.33;49.00;100378.30;1642657;86;21198;-71
2022/07/07 10:33:01;;;;;;;3.95;1.45;;;;;;;23.33;48.44;100372.71;1630530;87;21192;-71
2022/07/07 10:35:35;;;;;;;4.00;1.70;;;;;;;23.32;48.45;100378.03;1589678;88;21172;-72
2022/07/07 10:38:10;;;;;;;7.67;1.52;;;;;;;23.28;48.46;100386.14;1612001;88;21110;-70
2022/07/07 10:40:40;;;;;;;4.28;1.30;;;;;;;23.33;47.56;100382.50;1611618;87;21188;-68
2022/07/07 10:43:34;;;;;;;1.35;1.00;;;;;;;23.31;47.09;100382.78;1633904;87;21656;-71
2022/07/07 10:46:11;;;;;;;4.85;1.70;;;;;;;23.23;47.62;100368.53;1596904;88;21594;-65
2022/07/07 10:48:50;;;;;;;6.50;1.20;;;;;;;23.20;48.17;100367.14;1631947;86;21195;-62
2022/07/07 10:51:25;;;;;;;1.92;1.32;;;;;;;23.21;48.29;100365.19;1629266;87;21148;-65
2022/07/07 10:53:58;;;;;;;4.30;1.22;;;;;;;23.23;48.57;100360.98;1649978;86;21223;-67
2022/07/07 10:56:27;;;;;;;1.45;1.10;;;;;;;23.27;48.86;100366.85;1635525;86;21227;-67
2022/07/07 10:59:01;;;;;;;4.80;1.15;;;;;;;23.28;48.53;100362.94;1642949;87;21166;-67
2022/07/07 11:01:32;;;;;;;4.10;1.10;;;;;;;23.28;48.69;100371.32;1598533;88;21180;-67
2022/07/07 11:04:03;;;;;;;1.27;1.10;;;;;;;23.26;48.74;100367.97;1603737;89;21597;-70
2022/07/07 11:06:46;;;;;;;2.45;1.30;;;;;;;23.24;49.00;100378.05;1602701;88;21182;-65
2022/07/07 11:09:15;;;;;;;1.42;1.22;;;;;;;23.23;49.81;100381.12;1625486;87;21601;-65
2022/07/07 11:11:46;;;;;;;3.17;1.40;;;;;;;23.25;49.48;100378.31;1630831;88;21574;-66
2022/07/07 11:14:16;;;;;;;1.27;1.12;;;;;;;23.28;49.53;100380.55;1631453;86;21636;-66
2022/07/07 11:16:49;;;;;;;1.30;0.93;;;;;;;23.32;49.41;100380.82;1638589;86;21213;-66
2022/07/07 11:19:21;;;;;;;1.42;1.10;;;;;;;23.32;49.22;100387.81;1627990;87;21139;-65
2022/07/07 11:21:51;;;;;;;1.05;0.95;;;;;;;23.29;49.37;100385.58;1630591;87;21107;-68
2022/07/07 11:24:23;;;;;;;2.67;1.32;;;;;;;23.28;48.94;100396.48;1627896;87;21160;-66
2022/07/07 11:27:02;;;;;;;1.55;1.20;;;;;;;23.25;48.49;100391.45;1601213;88;21560;-66
2022/07/07 11:29:33;;;;;;;2.45;1.02;;;;;;;23.16;48.27;100390.36;1608766;88;21184;-66
2022/07/07 11:32:04;;;;;;;2.10;1.10;;;;;;;23.06;48.57;100389.25;1612938;88;21158;-66
2022/07/07 11:34:48;;;;;;;1.15;1.02;;;;;;;23.04;49.29;100382.26;1608512;88;21147;-66
2022/07/07 11:37:26;;;;;;;1.00;0.90;;;;;;;23.02;48.64;100385.34;1614717;88;21194;-68
2022/07/07 11:39:56;;;;;;;1.17;1.00;;;;;;;22.99;48.99;100383.10;1608518;88;21158;-66
2022/07/07 11:42:26;;;;;;;2.62;1.10;;;;;;;23.02;48.63;100385.34;1585508;89;21174;-65
2022/07/07 11:44:57;;;;;;;1.77;0.90;;;;;;;23.09;48.57;100391.48;1612214;88;21154;-67
2022/07/07 11:47:36;;;;;;;1.45;1.20;;;;;;;23.13;48.65;100383.93;1616126;88;21162;-66
2022/07/07 11:50:08;;;;;;;3.35;1.17;;;;;;;23.14;49.00;100381.41;1619019;87;21202;-66